Time;durP1;ratioP1;P1;durP2;ratioP2;P2;SDS_P1;SDS_P2;PMS_P1;PMS_P2;Temp;Humidity;BMP_temperature;BMP_pressure;BME280_temperature;BME280_humidity;BME280_pressure;Samples;Min_cycle;Max_cycle;Signal;HPM_P1;HPM_P2
2023/04/18 08:05:26;;;;;;;;;8.00;8.00;;;;;;;;5103768;27;13401;-72
2023/04/18 08:07:51;;;;;;;;;8.25;5.00;;;;;;;;5105698;28;12250;-70
2023/04/18 08:10:16;;;;;;;;;7.25;7.25;;;;;;;;5106563;28;11437;-72
2023/04/18 08:12:42;;;;;;;;;6.75;6.75;;;;;;;;5105894;28;8803;-71
2023/04/18 08:15:07;;;;;;;;;7.75;5.00;;;;;;;;5107256;28;8823;-69
2023/04/18 08:17:33;;;;;;;;;9.00;7.00;;;;;;;;5106948;28;8803;-71
2023/04/18 08:19:59;;;;;;;;;8.00;7.00;;;;;;;;5106850;28;8796;-71
2023/04/18 08:22:24;;;;;;;;;9.00;7.00;;;;;;;;5107111;28;8813;-69
2023/04/18 08:24:50;;;;;;;;;8.50;7.25;;;;;;;;5106788;28;11153;-69
2023/04/18 08:27:15;;;;;;;;;8.75;7.75;;;;;;;;5107239;28;8771;-69
2023/04/18 08:29:40;;;;;;;;;8.25;6.75;;;;;;;;5106895;28;8808;-68
2023/04/18 08:32:06;;;;;;;;;8.00;5.75;;;;;;;;5106729;28;8820;-68
2023/04/18 08:34:32;;;;;;;;;8.00;6.00;;;;;;;;5105299;28;8807;-68
2023/04/18 08:36:58;;;;;;;;;5.00;5.00;;;;;;;;5106449;28;10992;-68
2023/04/18 08:39:23;;;;;;;;;8.00;8.00;;;;;;;;5106439;28;8788;-68
2023/04/18 08:41:52;;;;;;;;;6.00;4.75;;;;;;;;5106606;28;8800;-69
2023/04/18 08:44:17;;;;;;;;;9.00;7.25;;;;;;;;5106599;28;8959;-69
2023/04/18 08:46:43;;;;;;;;;5.25;4.00;;;;;;;;5105954;28;10715;-68
2023/04/18 08:49:08;;;;;;;;;10.00;7.75;;;;;;;;5106326;28;8792;-68
2023/04/18 08:51:35;;;;;;;;;9.75;6.25;;;;;;;;5106436;28;8799;-67
2023/04/18 08:54:03;;;;;;;;;9.00;5.75;;;;;;;;5104958;28;8800;-68
2023/04/18 08:56:28;;;;;;;;;5.25;5.25;;;;;;;;5106278;28;11890;-68
2023/04/18 08:58:54;;;;;;;;;4.00;4.00;;;;;;;;5104806;28;10848;-68
2023/04/18 09:01:20;;;;;;;;;7.50;4.75;;;;;;;;5106235;28;8802;-68
2023/04/18 09:03:45;;;;;;;;;5.50;5.00;;;;;;;;5105750;28;8846;-68
2023/04/18 09:06:19;;;;;;;;;4.75;4.75;;;;;;;;5105448;28;8796;-68
2023/04/18 09:08:56;;;;;;;;;4.75;4.75;;;;;;;;5105989;28;8784;-68
2023/04/18 09:11:27;;;;;;;;;4.75;4.75;;;;;;;;5105849;28;10980;-68
2023/04/18 09:13:54;;;;;;;;;4.50;4.50;;;;;;;;5105736;28;11402;-68
2023/04/18 09:16:21;;;;;;;;;7.00;7.00;;;;;;;;5094838;28;11224;-68
2023/04/18 09:19:05;;;;;;;;;7.50;7.50;;;;;;;;5091908;28;11361;-68
2023/04/18 09:21:31;;;;;;;;;11.00;9.00;;;;;;;;5092149;28;11372;-68
2023/04/18 09:24:16;;;;;;;;;5.25;5.25;;;;;;;;5091638;28;11427;-69
2023/04/18 09:26:41;;;;;;;;;6.75;4.50;;;;;;;;5092299;28;11447;-69
2023/04/18 09:29:07;;;;;;;;;7.25;5.00;;;;;;;;5091956;28;11135;-69
2023/04/18 09:31:32;;;;;;;;;4.50;4.50;;;;;;;;5091958;28;8911;-69
2023/04/18 09:33:59;;;;;;;;;5.25;4.75;;;;;;;;5091809;28;8955;-69
2023/04/18 09:36:30;;;;;;;;;5.00;5.00;;;;;;;;5092039;28;8784;-68
2023/04/18 09:38:55;;;;;;;;;12.00;10.00;;;;;;;;5092105;28;11000;-69
2023/04/18 09:41:22;;;;;;;;;7.50;7.50;;;;;;;;5090266;28;11431;-68
2023/04/18 09:43:47;;;;;;;;;8.75;8.00;;;;;;;;5091975;28;8845;-68
2023/04/18 09:46:12;;;;;;;;;7.75;6.25;;;;;;;;5091979;28;11664;-68
2023/04/18 09:48:38;;;;;;;;;4.75;4.75;;;;;;;;5091769;28;8816;-68
2023/04/18 09:51:08;;;;;;;;;7.00;5.50;;;;;;;;5092001;28;9530;-69
2023/04/18 09:53:37;;;;;;;;;7.50;6.00;;;;;;;;5092000;28;9510;-69
2023/04/18 09:56:04;;;;;;;;;5.50;5.00;;;;;;;;5091644;28;11503;-68
2023/04/18 09:58:31;;;;;;;;;7.00;6.00;;;;;;;;5091694;28;10737;-68
2023/04/18 10:00:57;;;;;;;;;9.25;8.00;;;;;;;;5091347;28;10817;-69
2023/04/18 10:03:27;;;;;;;;;8.50;8.00;;;;;;;;5091075;28;10711;-69
2023/04/18 10:05:53;;;;;;;;;6.75;6.75;;;;;;;;5091808;28;10636;-68
2023/04/18 10:08:19;;;;;;;;;6.00;6.00;;;;;;;;5091426;28;10610;-68
2023/04/18 10:10:45;;;;;;;;;6.50;6.50;;;;;;;;5091522;28;9538;-68
2023/04/18 10:13:12;;;;;;;;;11.00;10.00;;;;;;;;5089788;28;9008;-68
2023/04/18 10:15:38;;;;;;;;;5.75;5.75;;;;;;;;5091269;28;10583;-68
2023/04/18 10:18:12;;;;;;;;;7.00;7.00;;;;;;;;5089929;28;10599;-68
2023/04/18 10:20:39;;;;;;;;;9.50;6.00;;;;;;;;5090781;28;8880;-70
2023/04/18 10:23:23;;;;;;;;;2.00;2.00;;;;;;;;5091187;28;10389;-68
2023/04/18 10:25:49;;;;;;;;;2.50;1.25;;;;;;;;5091120;28;10320;-69
2023/04/18 10:28:14;;;;;;;;;10.25;9.00;;;;;;;;5089306;28;10344;-68
2023/04/18 10:30:39;;;;;;;;;9.00;6.00;;;;;;;;5090966;28;10590;-69
2023/04/18 10:33:23;;;;;;;;;6.50;5.25;;;;;;;;5090873;28;8892;-69
2023/04/18 10:36:11;;;;;;;;;5.50;5.50;;;;;;;;5091009;28;8804;-69
2023/04/18 10:38:44;;;;;;;;;9.50;9.50;;;;;;;;5087731;28;10723;-70
2023/04/18 10:41:15;;;;;;;;;5.00;5.00;;;;;;;;5090177;28;10531;-73
2023/04/18 10:43:59;;;;;;;;;7.75;6.50;;;;;;;;5090277;28;10423;-71
2023/04/18 10:46:24;;;;;;;;;8.00;6.00;;;;;;;;5090450;28;10536;-66
2023/04/18 10:49:10;;;;;;;;;6.25;5.00;;;;;;;;5090586;28;10521;-68
2023/04/18 10:51:35;;;;;;;;;12.25;7.25;;;;;;;;5090559;28;8814;-69
2023/04/18 10:54:01;;;;;;;;;5.75;5.75;;;;;;;;5090424;28;10614;-69
2023/04/18 10:56:27;;;;;;;;;5.25;5.25;;;;;;;;5090365;28;8780;-70
2023/04/18 10:58:53;;;;;;;;;6.75;6.75;;;;;;;;5097044;28;8796;-70
2023/04/18 11:01:23;;;;;;;;;6.50;6.00;;;;;;;;5101451;28;10485;-68
2023/04/18 11:03:48;;;;;;;;;6.50;6.50;;;;;;;;5101723;28;9721;-69
2023/04/18 11:06:13;;;;;;;;;9.75;6.75;;;;;;;;5098996;28;10401;-69
2023/04/18 11:08:39;;;;;;;;;7.25;7.25;;;;;;;;5105468;28;8789;-71
2023/04/18 11:11:08;;;;;;;;;6.50;5.00;;;;;;;;5100246;28;8815;-69
2023/04/18 11:13:33;;;;;;;;;5.50;5.50;;;;;;;;5099010;28;8851;-69
2023/04/18 11:15:58;;;;;;;;;5.75;5.00;;;;;;;;5100455;28;10590;-68
2023/04/18 11:18:24;;;;;;;;;5.00;5.00;;;;;;;;5094450;28;8820;-68
2023/04/18 11:20:50;;;;;;;;;7.50;5.00;;;;;;;;5092502;28;8823;-68
2023/04/18 11:23:18;;;;;;;;;9.50;6.75;;;;;;;;5088788;28;8910;-68
2023/04/18 11:25:44;;;;;;;;;6.50;5.00;;;;;;;;5088600;28;8784;-69
2023/04/18 11:28:12;;;;;;;;;5.25;5.25;;;;;;;;5088525;28;11142;-69
2023/04/18 11:30:38;;;;;;;;;6.00;4.75;;;;;;;;5088584;28;8868;-68
2023/04/18 11:33:08;;;;;;;;;5.00;5.00;;;;;;;;5088573;28;10453;-68
2023/04/18 11:35:40;;;;;;;;;6.25;5.00;;;;;;;;5085235;28;10179;-69
2023/04/18 11:38:06;;;;;;;;;6.75;6.00;;;;;;;;5088015;28;10493;-69
2023/04/18 11:40:31;;;;;;;;;5.75;5.00;;;;;;;;5088031;28;10341;-68
2023/04/18 11:43:00;;;;;;;;;4.75;4.75;;;;;;;;5088133;28;9545;-69
2023/04/18 11:45:26;;;;;;;;;6.00;5.00;;;;;;;;5088240;28;8807;-70
2023/04/18 11:47:54;;;;;;;;;5.25;4.00;;;;;;;;5088178;28;10390;-69
2023/04/18 11:50:19;;;;;;;;;8.25;6.25;;;;;;;;5087311;28;10973;-69
2023/04/18 11:52:48;;;;;;;;;7.00;6.50;;;;;;;;5087802;28;10402;-69
2023/04/18 11:55:13;;;;;;;;;7.00;5.00;;;;;;;;5085368;28;8835;-69
2023/04/18 11:57:39;;;;;;;;;6.00;5.00;;;;;;;;5087834;28;10366;-69
2023/04/18 12:00:08;;;;;;;;;4.00;4.00;;;;;;;;5090762;28;8805;-69
2023/04/18 12:02:44;;;;;;;;;6.00;5.25;;;;;;;;5099994;28;8885;-69
2023/04/18 12:05:13;;;;;;;;;5.25;5.25;;;;;;;;5094702;28;10438;-70
2023/04/18 12:07:43;;;;;;;;;5.50;4.50;;;;;;;;5088820;28;10337;-69
2023/04/18 12:10:22;;;;;;;;;5.75;5.75;;;;;;;;5088659;28;10335;-69
2023/04/18 12:12:51;;;;;;;;;3.00;3.00;;;;;;;;5087768;28;10423;-69
2023/04/18 12:15:17;;;;;;;;;5.50;5.00;;;;;;;;5086407;28;10290;-69
2023/04/18 12:17:43;;;;;;;;;4.50;4.50;;;;;;;;5090374;28;11039;-68
2023/04/18 12:20:08;;;;;;;;;4.00;4.00;;;;;;;;5098449;28;8825;-68
2023/04/18 12:22:37;;;;;;;;;7.75;5.00;;;;;;;;5097492;28;8834;-69
2023/04/18 12:25:09;;;;;;;;;5.75;4.75;;;;;;;;5099222;28;8878;-69
2023/04/18 12:27:47;;;;;;;;;5.00;5.00;;;;;;;;5099520;28;11355;-68
2023/04/18 12:30:13;;;;;;;;;4.00;4.00;;;;;;;;5098500;28;10501;-69
2023/04/18 12:32:38;;;;;;;;;5.25;4.00;;;;;;;;5098028;28;11419;-69
2023/04/18 12:35:05;;;;;;;;;4.75;4.75;;;;;;;;5098716;28;8916;-69
2023/04/18 12:37:30;;;;;;;;;6.00;4.00;;;;;;;;5098274;28;8804;-68
2023/04/18 12:39:55;;;;;;;;;5.00;4.00;;;;;;;;5097732;28;10516;-68
2023/04/18 12:42:20;;;;;;;;;5.00;4.00;;;;;;;;5099512;28;8836;-68
2023/04/18 12:44:45;;;;;;;;;5.00;4.50;;;;;;;;5097175;28;8881;-69
2023/04/18 12:47:11;;;;;;;;;5.25;3.00;;;;;;;;5098010;28;8805;-69
2023/04/18 12:49:36;;;;;;;;;5.00;4.00;;;;;;;;5099532;28;8812;-68
2023/04/18 12:52:01;;;;;;;;;5.00;3.50;;;;;;;;5101733;28;8799;-69
2023/04/18 12:54:27;;;;;;;;;4.25;4.25;;;;;;;;5102589;28;8847;-69
2023/04/18 12:56:52;;;;;;;;;3.00;3.00;;;;;;;;5102311;28;9951;-69
2023/04/18 12:59:17;;;;;;;;;7.00;3.75;;;;;;;;5101578;28;8784;-69
2023/04/18 13:01:42;;;;;;;;;4.25;3.25;;;;;;;;5107406;28;8892;-69
2023/04/18 13:04:08;;;;;;;;;4.00;3.00;;;;;;;;5102314;28;8814;-65
2023/04/18 13:06:33;;;;;;;;;3.00;3.00;;;;;;;;5092833;28;8783;-66
2023/04/18 13:08:58;;;;;;;;;3.75;3.75;;;;;;;;5092842;28;8826;-67
2023/04/18 13:11:27;;;;;;;;;4.50;4.00;;;;;;;;5092949;28;8893;-68
2023/04/18 13:13:52;;;;;;;;;4.50;4.00;;;;;;;;5092818;28;8913;-68
2023/04/18 13:16:17;;;;;;;;;3.50;3.00;;;;;;;;5101444;28;10393;-67
2023/04/18 13:18:43;;;;;;;;;3.00;3.00;;;;;;;;5097117;28;8816;-68
2023/04/18 13:21:08;;;;;;;;;4.25;4.25;;;;;;;;5095812;28;8826;-69
2023/04/18 13:23:33;;;;;;;;;4.25;4.25;;;;;;;;5092523;28;8867;-67
2023/04/18 13:25:59;;;;;;;;;3.75;3.00;;;;;;;;5092402;28;9550;-66
2023/04/18 13:28:24;;;;;;;;;4.00;3.50;;;;;;;;5092875;28;8927;-66
2023/04/18 13:30:50;;;;;;;;;5.25;4.75;;;;;;;;5092306;28;8879;-66
2023/04/18 13:33:15;;;;;;;;;3.00;2.75;;;;;;;;5091802;28;8802;-67
2023/04/18 13:35:41;;;;;;;;;4.00;4.00;;;;;;;;5092186;28;8892;-67
2023/04/18 13:38:06;;;;;;;;;4.75;3.00;;;;;;;;5091620;28;8803;-67
2023/04/18 13:40:32;;;;;;;;;4.25;4.25;;;;;;;;5090768;28;8808;-66
2023/04/18 13:42:57;;;;;;;;;4.00;4.00;;;;;;;;5090690;28;8922;-66
2023/04/18 13:45:23;;;;;;;;;4.00;4.00;;;;;;;;5091803;28;8803;-66
2023/04/18 13:47:48;;;;;;;;;5.50;5.00;;;;;;;;5091406;28;8812;-66
2023/04/18 13:50:13;;;;;;;;;4.25;4.25;;;;;;;;5102349;28;8799;-66
2023/04/18 13:52:39;;;;;;;;;8.75;4.50;;;;;;;;5097807;28;8792;-66
2023/04/18 13:55:04;;;;;;;;;8.00;8.00;;;;;;;;5103317;28;8806;-66
2023/04/18 13:57:33;;;;;;;;;8.75;6.00;;;;;;;;5102580;28;8808;-66
2023/04/18 13:59:58;;;;;;;;;8.00;5.00;;;;;;;;5097177;28;8909;-66
2023/04/18 14:02:23;;;;;;;;;6.00;5.00;;;;;;;;5102072;28;10537;-66
2023/04/18 14:04:50;;;;;;;;;5.75;5.75;;;;;;;;5102099;28;8837;-66
2023/04/18 14:07:16;;;;;;;;;6.50;6.00;;;;;;;;5098251;28;8880;-66
2023/04/18 14:09:41;;;;;;;;;6.00;6.00;;;;;;;;5092710;28;10754;-66
2023/04/18 14:12:07;;;;;;;;;7.00;5.75;;;;;;;;5100704;28;8809;-66
2023/04/18 14:14:32;;;;;;;;;6.00;6.00;;;;;;;;5102283;28;9908;-66
2023/04/18 14:16:57;;;;;;;;;5.75;5.75;;;;;;;;5099258;28;8935;-66
2023/04/18 14:19:22;;;;;;;;;6.25;6.25;;;;;;;;5096949;28;8807;-66
2023/04/18 14:21:48;;;;;;;;;9.00;8.00;;;;;;;;5090000;28;8832;-66
2023/04/18 14:24:13;;;;;;;;;8.75;7.00;;;;;;;;5091131;28;8923;-69
2023/04/18 14:26:38;;;;;;;;;7.00;7.00;;;;;;;;5095666;28;8830;-69
2023/04/18 14:29:04;;;;;;;;;12.00;9.75;;;;;;;;5090960;28;8804;-70
2023/04/18 14:31:29;;;;;;;;;7.50;7.50;;;;;;;;5090830;28;9007;-70
2023/04/18 14:33:54;;;;;;;;;7.50;7.50;;;;;;;;5089096;28;8900;-69
2023/04/18 14:36:20;;;;;;;;;11.00;8.00;;;;;;;;5089653;28;8812;-71
2023/04/18 14:38:49;;;;;;;;;11.00;8.75;;;;;;;;5088749;28;8784;-70
2023/04/18 14:41:14;;;;;;;;;8.75;8.00;;;;;;;;5089486;28;8811;-70
2023/04/18 14:43:40;;;;;;;;;7.75;6.00;;;;;;;;5088251;28;10703;-71
2023/04/18 14:46:12;;;;;;;;;7.25;6.25;;;;;;;;5088838;28;9530;-70
2023/04/18 14:48:37;;;;;;;;;5.25;5.25;;;;;;;;5090383;28;9654;-71
2023/04/18 14:51:03;;;;;;;;;3.25;3.00;;;;;;;;5093914;28;10624;-73
2023/04/18 14:53:28;;;;;;;;;4.25;3.50;;;;;;;;5096328;28;8804;-74
2023/04/18 14:55:54;;;;;;;;;3.25;3.00;;;;;;;;5089393;28;8935;-70
2023/04/18 14:58:20;;;;;;;;;3.00;2.00;;;;;;;;5089328;28;8843;-71
2023/04/18 15:00:46;;;;;;;;;3.75;3.25;;;;;;;;5089019;28;10536;-71
2023/04/18 15:03:17;;;;;;;;;1.50;1.50;;;;;;;;5088955;28;9661;-70
2023/04/18 15:05:45;;;;;;;;;5.00;3.00;;;;;;;;5089071;28;8820;-70
2023/04/18 15:08:11;;;;;;;;;4.25;3.00;;;;;;;;5088465;28;10769;-71
2023/04/18 15:10:37;;;;;;;;;3.00;3.00;;;;;;;;5079154;28;10515;-69
2023/04/18 15:13:02;;;;;;;;;4.00;2.25;;;;;;;;5073519;28;10590;-71
2023/04/18 15:15:29;;;;;;;;;2.00;2.00;;;;;;;;5102499;28;8825;-71
2023/04/18 15:17:55;;;;;;;;;2.00;2.00;;;;;;;;5109016;28;8816;-73
2023/04/18 15:20:21;;;;;;;;;4.50;3.00;;;;;;;;5109822;27;10966;-69
2023/04/18 15:22:46;;;;;;;;;3.00;3.00;;;;;;;;5108664;28;10724;-70
2023/04/18 15:25:15;;;;;;;;;4.25;2.75;;;;;;;;5109863;28;8797;-73
2023/04/18 15:27:40;;;;;;;;;2.00;2.00;;;;;;;;5090260;28;8831;-71
2023/04/18 15:30:07;;;;;;;;;2.25;2.25;;;;;;;;5089820;28;10668;-71
2023/04/18 15:32:32;;;;;;;;;2.00;2.00;;;;;;;;5089553;28;8807;-71
2023/04/18 15:34:57;;;;;;;;;1.25;1.00;;;;;;;;5087038;28;11335;-68
2023/04/18 15:37:22;;;;;;;;;1.75;1.00;;;;;;;;5084675;28;8812;-70
2023/04/18 15:39:48;;;;;;;;;3.75;1.25;;;;;;;;5087241;28;8804;-70
2023/04/18 15:42:13;;;;;;;;;1.50;1.50;;;;;;;;5087805;28;8784;-68
2023/04/18 15:44:38;;;;;;;;;1.00;1.00;;;;;;;;5087862;28;9472;-71
